createdAt,value
2018-12-04T00:01:20.277Z,10.30
2018-12-04T00:03:52.852Z,10.30
2018-12-04T00:06:25.456Z,10.30
2018-12-04T00:08:58.364Z,10.40
2018-12-04T00:11:31.797Z,10.30
2018-12-04T00:14:06.551Z,10.30
2018-12-04T00:16:39.810Z,10.40
2018-12-04T00:19:12.756Z,10.30
2018-12-04T00:21:46.283Z,10.30
2018-12-04T00:24:19.149Z,10.30
2018-12-04T00:26:52.280Z,10.30
2018-12-04T00:29:24.677Z,10.30
2018-12-04T00:31:57.644Z,10.40
2018-12-04T00:34:30.801Z,10.40
2018-12-04T00:37:04.263Z,10.40
2018-12-04T00:39:37.543Z,10.40
2018-12-04T00:42:10.249Z,10.50
2018-12-04T00:44:43.682Z,10.50
2018-12-04T00:47:16.809Z,10.50
2018-12-04T00:49:50.076Z,10.50
2018-12-04T00:52:23.208Z,10.50
2018-12-04T00:54:56.250Z,10.60
2018-12-04T00:57:29.435Z,10.50
2018-12-04T01:00:02.825Z,10.50
2018-12-04T01:02:35.323Z,10.50
2018-12-04T01:05:08.659Z,10.50
2018-12-04T01:07:41.187Z,10.40
2018-12-04T01:10:14.007Z,10.50
2018-12-04T01:12:47.450Z,10.50
2018-12-04T01:15:20.324Z,10.50
2018-12-04T01:17:55.519Z,10.60
2018-12-04T01:20:28.697Z,10.60
2018-12-04T01:23:02.572Z,10.60
2018-12-04T01:25:37.463Z,10.70
2018-12-04T01:28:10.987Z,10.60
2018-12-04T01:30:43.530Z,10.60
2018-12-04T01:33:16.447Z,10.50
2018-12-04T01:35:49.283Z,10.50
2018-12-04T01:38:23.746Z,10.50
2018-12-04T01:40:58.380Z,10.60
2018-12-04T01:43:31.896Z,10.70
2018-12-04T01:46:04.782Z,10.70
2018-12-04T01:48:37.490Z,10.80
2018-12-04T01:51:12.086Z,10.70
2018-12-04T01:53:44.945Z,10.80
2018-12-04T01:56:18.084Z,10.70
2018-12-04T01:58:50.871Z,10.60
2018-12-04T02:01:23.624Z,10.70
2018-12-04T02:03:56.461Z,10.70
2018-12-04T02:06:30.175Z,10.70
2018-12-04T02:09:06.559Z,10.70
2018-12-04T02:11:41.153Z,10.70
2018-12-04T02:14:13.924Z,10.70
2018-12-04T02:16:46.453Z,10.70
2018-12-04T02:19:19.635Z,10.70
2018-12-04T02:21:53.170Z,10.70
2018-12-04T02:24:26.577Z,10.70
2018-12-04T02:26:59.901Z,10.70
2018-12-04T02:29:33.303Z,10.70
2018-12-04T02:32:06.690Z,10.70
2018-12-04T02:34:40.458Z,10.70
2018-12-04T02:37:13.765Z,10.60
2018-12-04T02:39:46.801Z,10.60
2018-12-04T02:42:24.013Z,10.60
2018-12-04T02:44:57.254Z,10.70
2018-12-04T02:47:31.164Z,10.70
2018-12-04T02:50:05.117Z,10.70
2018-12-04T02:52:38.232Z,10.70
2018-12-04T02:55:10.857Z,10.70
2018-12-04T02:57:45.476Z,10.70
2018-12-04T03:00:18.845Z,10.70
2018-12-04T03:02:52.653Z,10.70
2018-12-04T03:05:25.299Z,10.70
2018-12-04T03:07:58.050Z,10.70
2018-12-04T03:10:31.629Z,10.60
2018-12-04T03:13:04.636Z,10.40
2018-12-04T03:15:37.212Z,10.40
2018-12-04T03:18:09.991Z,10.30
2018-12-04T03:20:43.387Z,10.30
2018-12-04T03:23:15.936Z,10.10
2018-12-04T03:25:50.482Z,9.90
2018-12-04T03:28:23.293Z,9.70
2018-12-04T03:30:56.645Z,9.50
2018-12-04T03:33:39.749Z,9.50
2018-12-04T03:36:12.838Z,9.40
2018-12-04T03:38:46.545Z,9.30
2018-12-04T03:41:19.716Z,9.30
2018-12-04T03:43:54.293Z,9.30
2018-12-04T03:46:27.796Z,9.20
2018-12-04T03:49:00.754Z,9.10
2018-12-04T03:51:33.516Z,9.10
2018-12-04T03:54:06.341Z,9.10
2018-12-04T03:56:39.930Z,9.00
2018-12-04T03:59:12.729Z,9.00
2018-12-04T04:01:46.770Z,8.90
2018-12-04T04:04:20.186Z,8.80
2018-12-04T04:06:53.241Z,8.80
2018-12-04T04:09:27.735Z,8.80
2018-12-04T04:12:00.925Z,8.80
2018-12-04T04:14:33.739Z,8.80
2018-12-04T04:17:06.851Z,8.80
2018-12-04T04:19:41.563Z,8.70
2018-12-04T04:22:14.932Z,8.70
2018-12-04T04:24:49.791Z,8.70
2018-12-04T04:27:22.340Z,8.70
2018-12-04T04:29:55.213Z,8.70
2018-12-04T04:32:28.178Z,8.70
2018-12-04T04:35:02.017Z,8.70
2018-12-04T04:37:35.455Z,8.70
2018-12-04T04:40:08.260Z,8.60
2018-12-04T04:42:41.825Z,8.70
2018-12-04T04:45:15.094Z,8.60
2018-12-04T04:47:49.031Z,8.50
2018-12-04T04:50:21.766Z,8.60
2018-12-04T04:52:54.962Z,8.60
2018-12-04T04:55:27.566Z,8.60
2018-12-04T04:58:00.655Z,8.50
2018-12-04T05:00:33.834Z,8.50
2018-12-04T05:03:07.069Z,8.50
2018-12-04T05:05:41.040Z,8.50
2018-12-04T05:08:13.916Z,8.40
2018-12-04T05:10:47.487Z,8.40
2018-12-04T05:13:22.156Z,8.40
2018-12-04T05:15:55.531Z,8.40
2018-12-04T05:18:28.972Z,8.30
2018-12-04T05:21:03.859Z,8.30
2018-12-04T05:23:37.533Z,8.40
2018-12-04T05:26:11.084Z,8.30
2018-12-04T05:28:44.224Z,8.40
2018-12-04T05:31:17.126Z,8.30
2018-12-04T05:33:51.003Z,8.30
2018-12-04T05:36:23.744Z,8.30
2018-12-04T05:38:58.745Z,8.30
2018-12-04T05:41:31.508Z,8.20
2018-12-04T05:44:05.941Z,8.30
2018-12-04T05:46:38.785Z,8.20
2018-12-04T05:49:11.931Z,8.20
2018-12-04T05:51:44.894Z,8.10
2018-12-04T05:54:18.837Z,8.10
2018-12-04T05:56:52.433Z,8.10
2018-12-04T05:59:25.204Z,8.10
2018-12-04T06:01:58.019Z,8.10
2018-12-04T06:04:32.407Z,8.10
2018-12-04T06:07:06.964Z,8.10
2018-12-04T06:09:39.649Z,8.10
2018-12-04T06:12:12.374Z,8.10
2018-12-04T06:14:46.519Z,8.10
2018-12-04T06:17:19.077Z,8.10
2018-12-04T06:19:52.022Z,8.10
2018-12-04T06:22:25.256Z,8.10
2018-12-04T06:24:58.784Z,8.10
2018-12-04T06:27:32.065Z,8.10
2018-12-04T06:30:06.254Z,8.10
2018-12-04T06:32:39.474Z,8.10
2018-12-04T06:35:12.492Z,8.10
2018-12-04T06:37:45.518Z,8.10
2018-12-04T06:40:18.278Z,8.00
2018-12-04T06:42:52.841Z,8.00
2018-12-04T06:45:25.799Z,7.90
2018-12-04T06:47:58.293Z,8.00
2018-12-04T06:50:32.430Z,8.00
2018-12-04T06:53:05.621Z,8.00
2018-12-04T06:55:39.246Z,8.10
2018-12-04T06:58:13.216Z,8.00
2018-12-04T07:00:45.910Z,8.00
2018-12-04T07:03:21.500Z,8.00
2018-12-04T07:05:55.718Z,7.90
2018-12-04T07:08:29.191Z,8.00
2018-12-04T07:11:02.735Z,8.00
2018-12-04T07:13:35.562Z,7.90
2018-12-04T07:16:08.708Z,7.90
2018-12-04T07:18:41.818Z,8.00
2018-12-04T07:21:15.296Z,8.00
2018-12-04T07:23:48.911Z,7.90
2018-12-04T07:26:21.893Z,7.80
2018-12-04T07:28:55.514Z,7.80
2018-12-04T07:31:28.897Z,7.80
2018-12-04T07:34:02.016Z,7.80
2018-12-04T07:36:34.879Z,7.70
2018-12-04T07:39:08.483Z,7.70
2018-12-04T07:41:41.820Z,7.70
2018-12-04T07:44:15.145Z,7.60
2018-12-04T07:46:48.050Z,7.50
2018-12-04T07:49:22.621Z,7.50
2018-12-04T07:51:55.250Z,7.50
2018-12-04T07:54:28.180Z,7.60
2018-12-04T07:57:01.022Z,7.60
2018-12-04T07:59:34.487Z,7.70
2018-12-04T08:02:08.045Z,7.70
2018-12-04T08:04:41.089Z,7.60
2018-12-04T08:07:15.912Z,7.50
2018-12-04T08:09:50.605Z,7.50
2018-12-04T08:12:23.565Z,7.60
2018-12-04T08:14:56.986Z,7.50
2018-12-04T08:17:30.756Z,7.50
2018-12-04T08:20:05.507Z,7.60
2018-12-04T08:22:38.517Z,7.40
2018-12-04T08:25:12.596Z,7.40
2018-12-04T08:27:46.331Z,7.40
2018-12-04T08:30:19.949Z,7.40
2018-12-04T08:32:53.426Z,7.30
2018-12-04T08:35:26.797Z,7.30
2018-12-04T08:38:00.178Z,7.40
2018-12-04T08:40:33.181Z,7.40
2018-12-04T08:43:06.332Z,7.40
2018-12-04T08:45:39.071Z,7.40
2018-12-04T08:48:11.786Z,7.40
2018-12-04T08:50:45.073Z,7.50
2018-12-04T08:53:17.996Z,7.50
2018-12-04T08:55:50.982Z,7.50
2018-12-04T08:58:24.852Z,7.60
2018-12-04T09:00:57.959Z,7.70
2018-12-04T09:03:31.169Z,7.60
2018-12-04T09:06:07.229Z,7.60
2018-12-04T09:08:40.161Z,7.60
2018-12-04T09:11:13.572Z,7.60
2018-12-04T09:13:47.772Z,7.60
2018-12-04T09:16:23.379Z,7.60
2018-12-04T09:18:55.411Z,7.60
2018-12-04T09:21:28.910Z,7.80
2018-12-04T09:24:01.741Z,7.70
2018-12-04T09:26:35.355Z,7.70
2018-12-04T09:29:08.335Z,7.70
2018-12-04T09:31:42.441Z,7.70
2018-12-04T09:34:15.483Z,7.80
2018-12-04T09:36:48.460Z,7.90
2018-12-04T09:39:21.611Z,8.00
2018-12-04T09:41:55.117Z,7.90
2018-12-04T09:44:27.954Z,7.90
2018-12-04T09:47:00.778Z,8.10
2018-12-04T09:49:34.010Z,7.90
2018-12-04T09:52:08.668Z,7.90
2018-12-04T09:54:41.323Z,7.90
2018-12-04T09:57:14.589Z,7.90
2018-12-04T09:59:48.326Z,8.00
2018-12-04T10:02:22.584Z,7.90
2018-12-04T10:04:55.636Z,8.00
2018-12-04T10:07:29.434Z,8.10
2018-12-04T10:10:02.673Z,8.20
2018-12-04T10:12:36.365Z,8.10
2018-12-04T10:15:10.166Z,8.20
2018-12-04T10:17:43.119Z,8.20
2018-12-04T10:20:16.503Z,8.20
2018-12-04T10:22:49.987Z,8.00
2018-12-04T10:25:23.849Z,8.00
2018-12-04T10:27:56.686Z,8.00
2018-12-04T10:30:30.530Z,8.10
2018-12-04T10:33:03.275Z,8.30
2018-12-04T10:35:36.661Z,8.30
2018-12-04T10:38:09.374Z,8.10
2018-12-04T10:40:42.847Z,8.10
2018-12-04T10:43:16.498Z,8.10
2018-12-04T10:45:49.945Z,8.20
2018-12-04T10:48:23.344Z,8.10
2018-12-04T10:50:56.796Z,8.10
2018-12-04T10:53:30.523Z,8.20
2018-12-04T10:56:03.475Z,8.00
2018-12-04T10:58:36.742Z,8.10
2018-12-04T11:01:17.075Z,8.20
2018-12-04T11:03:50.748Z,7.90
2018-12-04T11:06:23.360Z,7.90
2018-12-04T11:08:57.579Z,8.00
2018-12-04T11:11:31.283Z,8.10
2018-12-04T11:14:04.446Z,8.10
2018-12-04T11:16:37.384Z,8.10
2018-12-04T11:19:10.592Z,8.20
2018-12-04T11:21:44.594Z,8.20
2018-12-04T11:24:19.455Z,8.10
2018-12-04T11:26:52.659Z,8.20
2018-12-04T11:29:26.161Z,8.20
2018-12-04T11:32:03.363Z,8.20
2018-12-04T11:34:36.330Z,8.10
2018-12-04T11:37:09.573Z,8.20
2018-12-04T11:39:42.759Z,8.20
2018-12-04T11:42:17.521Z,8.20
2018-12-04T11:44:50.723Z,8.10
2018-12-04T11:47:23.763Z,8.10
2018-12-04T11:49:56.583Z,8.10
2018-12-04T11:52:30.478Z,8.10
2018-12-04T11:55:03.548Z,8.10
2018-12-04T11:57:37.000Z,8.10
2018-12-04T12:00:18.044Z,8.10
2018-12-04T12:02:51.062Z,8.10
2018-12-04T12:05:23.541Z,8.10
2018-12-04T12:07:56.578Z,8.00
2018-12-04T12:10:30.237Z,8.00
2018-12-04T12:13:03.944Z,7.90
2018-12-04T12:15:38.930Z,7.90
2018-12-04T12:18:11.545Z,7.90
2018-12-04T12:20:44.615Z,7.90
2018-12-04T12:23:17.570Z,7.90
2018-12-04T12:25:50.889Z,7.90
2018-12-04T12:28:24.114Z,7.90
2018-12-04T12:30:59.522Z,7.80
2018-12-04T12:33:34.735Z,7.80
2018-12-04T12:36:09.601Z,7.90
2018-12-04T12:38:43.120Z,7.90
2018-12-04T12:41:16.177Z,7.90
2018-12-04T12:43:50.672Z,7.80
2018-12-04T12:46:23.699Z,7.80
2018-12-04T12:48:56.676Z,7.80
2018-12-04T12:51:30.079Z,7.80
2018-12-04T12:54:03.048Z,7.90
2018-12-04T12:56:36.573Z,7.90
2018-12-04T12:59:09.488Z,7.90
2018-12-04T13:01:42.376Z,8.00
2018-12-04T13:04:15.904Z,8.10
2018-12-04T13:06:51.043Z,8.10
2018-12-04T13:09:24.437Z,8.20
2018-12-04T13:11:57.227Z,8.20
2018-12-04T13:14:30.838Z,8.20
2018-12-04T13:17:05.584Z,8.20
2018-12-04T13:19:41.330Z,8.10
2018-12-04T13:22:15.452Z,8.10
2018-12-04T13:24:49.947Z,8.10
2018-12-04T13:27:24.113Z,8.10
2018-12-04T13:29:57.739Z,8.00
2018-12-04T13:32:31.892Z,8.00
2018-12-04T13:35:06.082Z,7.90
2018-12-04T13:37:39.631Z,7.90
2018-12-04T13:40:13.022Z,7.90
2018-12-04T13:42:46.516Z,8.00
2018-12-04T13:45:20.027Z,8.10
2018-12-04T13:47:52.590Z,8.20
2018-12-04T13:50:26.513Z,8.10
2018-12-04T13:52:59.434Z,8.10
2018-12-04T13:55:33.077Z,8.00
2018-12-04T13:58:08.672Z,7.90
2018-12-04T14:00:42.759Z,8.00
2018-12-04T14:03:15.718Z,8.00
2018-12-04T14:05:48.747Z,7.90
2018-12-04T14:08:21.568Z,7.90
2018-12-04T14:10:54.499Z,7.90
2018-12-04T14:13:27.873Z,7.70
2018-12-04T14:18:35.102Z,7.60
2018-12-04T14:21:08.143Z,7.60
2018-12-04T14:23:41.432Z,7.50
2018-12-04T14:26:15.609Z,7.50
2018-12-04T14:28:49.503Z,7.50
2018-12-04T14:31:23.687Z,7.40
2018-12-04T14:33:56.789Z,7.40
2018-12-04T14:36:29.881Z,7.30
2018-12-04T14:39:07.064Z,7.30
2018-12-04T14:41:39.893Z,7.20
2018-12-04T14:44:12.886Z,7.20
2018-12-04T14:46:46.094Z,7.10
2018-12-04T14:49:19.625Z,7.10
2018-12-04T14:51:52.932Z,7.10
2018-12-04T14:54:25.719Z,7.00
2018-12-04T14:56:59.432Z,7.00
2018-12-04T14:59:34.034Z,7.00
2018-12-04T15:02:07.111Z,7.10
2018-12-04T15:04:40.435Z,7.10
2018-12-04T15:07:13.495Z,7.10
2018-12-04T15:09:46.167Z,6.90
2018-12-04T15:12:19.553Z,7.00
2018-12-04T15:14:52.465Z,6.90
2018-12-04T15:17:26.368Z,6.90
2018-12-04T15:22:33.367Z,6.80
2018-12-04T15:27:41.106Z,6.70
2018-12-04T15:30:14.174Z,6.70
2018-12-04T15:32:47.210Z,6.70
2018-12-04T15:35:21.850Z,6.70
2018-12-04T15:37:54.734Z,6.60
2018-12-04T15:40:29.200Z,6.60
2018-12-04T15:43:01.836Z,6.50
2018-12-04T15:45:34.866Z,6.60
2018-12-04T15:48:08.175Z,6.50
2018-12-04T15:50:41.202Z,6.50
2018-12-04T15:53:14.849Z,6.50
2018-12-04T15:55:48.211Z,6.50
2018-12-04T15:58:21.780Z,6.50
2018-12-04T16:00:55.477Z,6.50
2018-12-04T16:03:28.269Z,6.50
2018-12-04T16:06:01.464Z,6.30
2018-12-04T16:08:36.483Z,6.30
2018-12-04T16:11:09.876Z,6.30
2018-12-04T16:13:43.763Z,6.30
2018-12-04T16:16:16.608Z,6.30
2018-12-04T16:18:50.253Z,6.20
2018-12-04T16:21:23.034Z,6.30
2018-12-04T16:23:56.170Z,6.30
2018-12-04T16:26:30.024Z,6.20
2018-12-04T16:29:04.202Z,6.30
2018-12-04T16:31:37.522Z,6.20
2018-12-04T16:34:10.965Z,6.10
2018-12-04T16:36:43.931Z,6.10
2018-12-04T16:39:17.284Z,6.10
2018-12-04T16:41:50.713Z,6.10
2018-12-04T16:44:24.169Z,6.10
2018-12-04T16:47:00.263Z,6.20
2018-12-04T16:49:34.994Z,6.10
2018-12-04T16:52:08.403Z,6.10
2018-12-04T16:54:41.183Z,6.10
2018-12-04T16:57:16.333Z,6.00
2018-12-04T16:59:50.191Z,6.00
2018-12-04T17:02:23.891Z,6.00
2018-12-04T17:04:56.759Z,6.00
2018-12-04T17:07:29.874Z,5.90
2018-12-04T17:12:36.183Z,5.90
2018-12-04T17:15:08.935Z,5.80
2018-12-04T17:17:41.934Z,5.90
2018-12-04T17:20:16.766Z,5.90
2018-12-04T17:22:49.537Z,6.00
2018-12-04T17:27:57.458Z,6.00
2018-12-04T17:30:30.068Z,5.80
2018-12-04T17:33:02.885Z,5.70
2018-12-04T17:35:35.685Z,5.70
2018-12-04T17:38:08.693Z,5.60
2018-12-04T17:40:42.067Z,5.60
2018-12-04T17:43:15.294Z,5.50
2018-12-04T17:45:48.213Z,5.60
2018-12-04T17:48:21.822Z,5.60
2018-12-04T17:50:54.648Z,5.50
2018-12-04T17:53:29.128Z,5.50
2018-12-04T17:56:02.881Z,5.50
2018-12-04T17:58:35.550Z,5.50
2018-12-04T18:01:09.593Z,5.70
2018-12-04T18:03:42.136Z,5.60
2018-12-04T18:06:14.778Z,5.50
2018-12-04T18:08:49.297Z,5.40
2018-12-04T18:11:22.093Z,5.30
2018-12-04T18:13:54.768Z,5.40
2018-12-04T18:16:27.827Z,5.40
2018-12-04T18:19:03.091Z,5.40
2018-12-04T18:21:37.879Z,5.20
2018-12-04T18:24:10.794Z,5.30
2018-12-04T18:26:43.938Z,5.30
2018-12-04T18:29:16.833Z,5.30
2018-12-04T18:31:51.639Z,5.30
2018-12-04T18:34:24.332Z,5.20
2018-12-04T18:36:58.618Z,5.20
2018-12-04T18:39:32.411Z,5.20
2018-12-04T18:42:05.659Z,5.20
2018-12-04T18:44:38.621Z,5.10
2018-12-04T18:47:11.678Z,5.10
2018-12-04T18:49:45.217Z,5.10
2018-12-04T18:52:18.043Z,5.00
2018-12-04T18:54:51.322Z,5.00
2018-12-04T18:57:24.168Z,4.90
2018-12-04T18:59:57.594Z,4.90
2018-12-04T19:02:30.456Z,5.00
2018-12-04T19:05:04.716Z,5.00
2018-12-04T19:07:39.521Z,5.10
2018-12-04T19:10:14.336Z,5.00
2018-12-04T19:12:47.949Z,4.90
2018-12-04T19:15:21.035Z,4.90
2018-12-04T19:17:53.860Z,4.90
2018-12-04T19:20:26.939Z,4.90
2018-12-04T19:23:01.761Z,4.90
2018-12-04T19:25:35.166Z,4.90
2018-12-04T19:28:08.715Z,4.90
2018-12-04T19:30:43.466Z,4.80
2018-12-04T19:33:17.456Z,4.90
2018-12-04T19:35:50.281Z,4.90
2018-12-04T19:38:25.760Z,4.90
2018-12-04T19:41:00.689Z,4.90
2018-12-04T19:43:33.599Z,4.90
2018-12-04T19:46:08.323Z,4.90
2018-12-04T19:48:42.574Z,4.90
2018-12-04T19:51:17.623Z,4.70
2018-12-04T19:53:51.733Z,4.80
2018-12-04T19:56:25.252Z,4.70
2018-12-04T19:58:59.558Z,4.80
2018-12-04T20:01:32.612Z,4.80
2018-12-04T20:04:05.714Z,4.90
2018-12-04T20:06:38.528Z,4.70
2018-12-04T20:09:12.103Z,4.80
2018-12-04T20:11:45.181Z,4.70
2018-12-04T20:14:18.410Z,4.70
2018-12-04T20:16:51.151Z,4.70
2018-12-04T20:19:25.178Z,4.70
2018-12-04T20:21:58.657Z,4.70
2018-12-04T20:24:32.038Z,4.70
2018-12-04T20:27:05.351Z,4.70
2018-12-04T20:29:38.129Z,4.60
2018-12-04T20:32:11.315Z,4.70
2018-12-04T20:34:44.393Z,4.70
2018-12-04T20:37:17.986Z,4.60
2018-12-04T20:39:51.982Z,4.60
2018-12-04T20:42:25.264Z,4.50
2018-12-04T20:44:58.711Z,4.50
2018-12-04T20:47:31.374Z,4.60
2018-12-04T20:50:06.743Z,4.50
2018-12-04T20:52:41.012Z,4.50
2018-12-04T20:55:15.905Z,4.50
2018-12-04T20:57:49.349Z,4.50
2018-12-04T21:00:22.365Z,4.40
2018-12-04T21:02:55.641Z,4.40
2018-12-04T21:05:28.939Z,4.50
2018-12-04T21:08:02.388Z,4.40
2018-12-04T21:10:35.630Z,4.40
2018-12-04T21:13:14.453Z,4.50
2018-12-04T21:15:43.828Z,4.40
2018-12-04T21:18:17.289Z,4.50
2018-12-04T21:20:51.548Z,4.50
2018-12-04T21:23:25.349Z,4.50
2018-12-04T21:25:59.460Z,4.30
2018-12-04T21:28:32.186Z,4.30
2018-12-04T21:31:11.209Z,4.40
2018-12-04T21:33:49.818Z,4.40
2018-12-04T21:36:29.003Z,4.30
2018-12-04T21:39:07.693Z,4.20
2018-12-04T21:41:46.512Z,4.20
2018-12-04T21:44:24.814Z,4.40
2018-12-04T21:47:03.429Z,4.50
2018-12-04T21:49:37.001Z,4.40
2018-12-04T21:52:09.955Z,4.50
2018-12-04T21:54:44.520Z,4.30
2018-12-04T21:57:17.565Z,4.30
2018-12-04T21:59:50.952Z,4.30
2018-12-04T22:02:24.521Z,4.20
2018-12-04T22:04:57.162Z,4.20
2018-12-04T22:07:32.552Z,4.30
2018-12-04T22:10:07.353Z,4.20
2018-12-04T22:12:40.551Z,4.20
2018-12-04T22:15:14.248Z,4.10
2018-12-04T22:17:47.406Z,4.10
2018-12-04T22:20:20.753Z,4.20
2018-12-04T22:22:53.556Z,4.10
2018-12-04T22:25:26.813Z,4.10
2018-12-04T22:28:01.195Z,4.00
2018-12-04T22:30:34.102Z,4.10
2018-12-04T22:33:13.441Z,4.10
2018-12-04T22:35:46.061Z,4.00
2018-12-04T22:38:19.410Z,4.00
2018-12-04T22:40:52.820Z,4.00
2018-12-04T22:43:25.518Z,4.00
2018-12-04T22:45:58.029Z,4.00
2018-12-04T22:48:30.992Z,4.00
2018-12-04T22:51:10.828Z,4.00
2018-12-04T22:53:44.068Z,4.00
2018-12-04T22:56:16.882Z,4.00
2018-12-04T22:58:50.280Z,4.10
2018-12-04T23:01:34.319Z,4.00
2018-12-04T23:04:07.746Z,4.00
2018-12-04T23:06:42.436Z,4.00
2018-12-04T23:09:18.066Z,4.00
2018-12-04T23:11:51.456Z,4.00
2018-12-04T23:14:24.751Z,3.90
2018-12-04T23:16:57.804Z,3.80
2018-12-04T23:19:30.436Z,3.90
2018-12-04T23:22:03.263Z,3.90
2018-12-04T23:24:36.513Z,3.90
2018-12-04T23:27:11.051Z,3.90
2018-12-04T23:29:44.443Z,3.80
2018-12-04T23:32:17.347Z,3.90
2018-12-04T23:34:50.179Z,3.80
2018-12-04T23:37:24.616Z,3.80
2018-12-04T23:39:57.722Z,3.80
2018-12-04T23:42:31.248Z,3.80
2018-12-04T23:45:05.222Z,3.80
2018-12-04T23:47:38.746Z,3.80
2018-12-04T23:50:11.785Z,3.80
2018-12-04T23:52:44.456Z,3.80
2018-12-04T23:55:17.435Z,3.90
2018-12-04T23:57:50.411Z,3.70
